sensor_id;sensor_type;location;lat;lon;timestamp;P1;durP1;ratioP1;P2;durP2;ratioP2
31438;SDS011;18062;48.872;9.220;2023-07-31T00:01:25;1.77;;;1.10;;
31438;SDS011;18062;48.872;9.220;2023-07-31T00:03:51;1.30;;;1.20;;
31438;SDS011;18062;48.872;9.220;2023-07-31T00:06:17;2.20;;;1.30;;
31438;SDS011;18062;48.872;9.220;2023-07-31T00:08:43;1.53;;;1.13;;
31438;SDS011;18062;48.872;9.220;2023-07-31T00:11:09;1.63;;;1.40;;
31438;SDS011;18062;48.872;9.220;2023-07-31T00:13:35;1.33;;;1.07;;
31438;SDS011;18062;48.872;9.220;2023-07-31T00:16:01;1.53;;;1.40;;
31438;SDS011;18062;48.872;9.220;2023-07-31T00:18:27;3.07;;;1.60;;
31438;SDS011;18062;48.872;9.220;2023-07-31T00:20:53;2.13;;;1.50;;
31438;SDS011;18062;48.872;9.220;2023-07-31T00:23:19;2.13;;;1.30;;
31438;SDS011;18062;48.872;9.220;2023-07-31T00:25:45;1.40;;;1.10;;
31438;SDS011;18062;48.872;9.220;2023-07-31T00:28:11;2.43;;;1.30;;
31438;SDS011;18062;48.872;9.220;2023-07-31T00:30:37;2.50;;;1.40;;
31438;SDS011;18062;48.872;9.220;2023-07-31T00:33:03;1.90;;;1.30;;
31438;SDS011;18062;48.872;9.220;2023-07-31T00:35:29;3.50;;;1.23;;
31438;SDS011;18062;48.872;9.220;2023-07-31T00:37:56;2.77;;;1.53;;
31438;SDS011;18062;48.872;9.220;2023-07-31T00:40:22;1.80;;;1.30;;
31438;SDS011;18062;48.872;9.220;2023-07-31T00:42:48;2.10;;;1.60;;
31438;SDS011;18062;48.872;9.220;2023-07-31T00:45:14;1.30;;;1.20;;
31438;SDS011;18062;48.872;9.220;2023-07-31T00:47:40;1.43;;;1.27;;
31438;SDS011;18062;48.872;9.220;2023-07-31T00:50:06;1.90;;;1.33;;
31438;SDS011;18062;48.872;9.220;2023-07-31T00:52:33;2.97;;;1.20;;
31438;SDS011;18062;48.872;9.220;2023-07-31T00:54:59;1.53;;;1.30;;
31438;SDS011;18062;48.872;9.220;2023-07-31T00:57:25;1.83;;;1.50;;
31438;SDS011;18062;48.872;9.220;2023-07-31T00:59:51;2.43;;;1.30;;
31438;SDS011;18062;48.872;9.220;2023-07-31T01:02:17;2.63;;;1.50;;
31438;SDS011;18062;48.872;9.220;2023-07-31T01:04:43;2.90;;;1.50;;
31438;SDS011;18062;48.872;9.220;2023-07-31T01:07:22;2.30;;;1.50;;
31438;SDS011;18062;48.872;9.220;2023-07-31T01:10:00;1.50;;;1.10;;
31438;SDS011;18062;48.872;9.220;2023-07-31T01:12:28;1.67;;;1.50;;
31438;SDS011;18062;48.872;9.220;2023-07-31T01:15:05;1.30;;;1.20;;
31438;SDS011;18062;48.872;9.220;2023-07-31T01:17:31;2.00;;;1.57;;
31438;SDS011;18062;48.872;9.220;2023-07-31T01:19:59;2.10;;;1.30;;
31438;SDS011;18062;48.872;9.220;2023-07-31T01:22:30;1.90;;;1.40;;
31438;SDS011;18062;48.872;9.220;2023-07-31T01:27:29;1.40;;;1.30;;
31438;SDS011;18062;48.872;9.220;2023-07-31T01:29:56;2.30;;;1.30;;
31438;SDS011;18062;48.872;9.220;2023-07-31T01:32:24;1.47;;;1.20;;
31438;SDS011;18062;48.872;9.220;2023-07-31T01:34:51;2.23;;;1.40;;
31438;SDS011;18062;48.872;9.220;2023-07-31T01:37:17;1.50;;;1.33;;
31438;SDS011;18062;48.872;9.220;2023-07-31T01:39:43;1.60;;;1.20;;
31438;SDS011;18062;48.872;9.220;2023-07-31T01:42:09;1.43;;;1.17;;
31438;SDS011;18062;48.872;9.220;2023-07-31T01:44:35;4.33;;;1.40;;
31438;SDS011;18062;48.872;9.220;2023-07-31T01:47:01;3.80;;;1.60;;
31438;SDS011;18062;48.872;9.220;2023-07-31T01:49:27;2.97;;;1.50;;
31438;SDS011;18062;48.872;9.220;2023-07-31T01:51:53;1.80;;;1.30;;
31438;SDS011;18062;48.872;9.220;2023-07-31T01:54:19;1.30;;;1.20;;
31438;SDS011;18062;48.872;9.220;2023-07-31T01:56:45;1.27;;;1.17;;
31438;SDS011;18062;48.872;9.220;2023-07-31T01:59:11;3.17;;;1.50;;
31438;SDS011;18062;48.872;9.220;2023-07-31T02:01:37;1.53;;;1.40;;
31438;SDS011;18062;48.872;9.220;2023-07-31T02:04:03;1.33;;;1.03;;
31438;SDS011;18062;48.872;9.220;2023-07-31T02:06:29;1.60;;;1.10;;
31438;SDS011;18062;48.872;9.220;2023-07-31T02:08:56;2.73;;;1.60;;
31438;SDS011;18062;48.872;9.220;2023-07-31T02:11:22;2.83;;;1.40;;
31438;SDS011;18062;48.872;9.220;2023-07-31T02:13:48;1.53;;;1.30;;
31438;SDS011;18062;48.872;9.220;2023-07-31T02:16:14;5.70;;;1.50;;
31438;SDS011;18062;48.872;9.220;2023-07-31T02:18:40;3.33;;;1.47;;
31438;SDS011;18062;48.872;9.220;2023-07-31T02:21:06;1.83;;;1.50;;
31438;SDS011;18062;48.872;9.220;2023-07-31T02:23:32;1.57;;;1.13;;
31438;SDS011;18062;48.872;9.220;2023-07-31T02:25:58;2.03;;;1.37;;
31438;SDS011;18062;48.872;9.220;2023-07-31T02:28:24;2.90;;;1.50;;
31438;SDS011;18062;48.872;9.220;2023-07-31T02:30:50;3.10;;;1.20;;
31438;SDS011;18062;48.872;9.220;2023-07-31T02:33:17;3.07;;;1.43;;
31438;SDS011;18062;48.872;9.220;2023-07-31T02:35:43;1.67;;;1.23;;
31438;SDS011;18062;48.872;9.220;2023-07-31T02:38:09;2.90;;;1.30;;
31438;SDS011;18062;48.872;9.220;2023-07-31T02:40:35;2.67;;;1.30;;
31438;SDS011;18062;48.872;9.220;2023-07-31T02:43:01;2.93;;;1.13;;
31438;SDS011;18062;48.872;9.220;2023-07-31T02:45:27;2.10;;;1.20;;
31438;SDS011;18062;48.872;9.220;2023-07-31T02:47:53;1.30;;;1.20;;
31438;SDS011;18062;48.872;9.220;2023-07-31T02:50:19;1.73;;;1.50;;
31438;SDS011;18062;48.872;9.220;2023-07-31T02:52:45;2.23;;;1.27;;
31438;SDS011;18062;48.872;9.220;2023-07-31T02:55:11;3.40;;;1.33;;
31438;SDS011;18062;48.872;9.220;2023-07-31T02:57:37;1.73;;;1.33;;
31438;SDS011;18062;48.872;9.220;2023-07-31T03:00:03;2.77;;;1.50;;
31438;SDS011;18062;48.872;9.220;2023-07-31T03:02:31;3.40;;;1.50;;
31438;SDS011;18062;48.872;9.220;2023-07-31T03:04:57;1.60;;;1.40;;
31438;SDS011;18062;48.872;9.220;2023-07-31T03:07:23;3.70;;;1.40;;
31438;SDS011;18062;48.872;9.220;2023-07-31T03:09:49;2.27;;;1.17;;
31438;SDS011;18062;48.872;9.220;2023-07-31T03:12:15;2.07;;;1.23;;
31438;SDS011;18062;48.872;9.220;2023-07-31T03:14:41;1.37;;;1.17;;
31438;SDS011;18062;48.872;9.220;2023-07-31T03:17:07;1.57;;;1.10;;
31438;SDS011;18062;48.872;9.220;2023-07-31T03:19:33;1.57;;;1.10;;
31438;SDS011;18062;48.872;9.220;2023-07-31T03:21:59;3.10;;;1.30;;
31438;SDS011;18062;48.872;9.220;2023-07-31T03:24:26;1.40;;;1.30;;
31438;SDS011;18062;48.872;9.220;2023-07-31T03:26:52;1.57;;;1.20;;
31438;SDS011;18062;48.872;9.220;2023-07-31T03:29:18;1.67;;;1.23;;
31438;SDS011;18062;48.872;9.220;2023-07-31T03:31:44;2.57;;;1.20;;
31438;SDS011;18062;48.872;9.220;2023-07-31T03:34:10;2.20;;;1.50;;
31438;SDS011;18062;48.872;9.220;2023-07-31T03:36:36;1.47;;;1.10;;
31438;SDS011;18062;48.872;9.220;2023-07-31T03:39:02;1.30;;;1.13;;
31438;SDS011;18062;48.872;9.220;2023-07-31T03:41:28;1.23;;;1.13;;
31438;SDS011;18062;48.872;9.220;2023-07-31T03:43:54;1.20;;;1.10;;
31438;SDS011;18062;48.872;9.220;2023-07-31T03:46:23;2.20;;;1.40;;
31438;SDS011;18062;48.872;9.220;2023-07-31T03:48:50;1.57;;;1.33;;
31438;SDS011;18062;48.872;9.220;2023-07-31T03:51:16;2.00;;;1.40;;
31438;SDS011;18062;48.872;9.220;2023-07-31T03:53:42;1.87;;;1.40;;
31438;SDS011;18062;48.872;9.220;2023-07-31T03:56:08;1.37;;;1.27;;
31438;SDS011;18062;48.872;9.220;2023-07-31T03:58:34;1.67;;;1.30;;
31438;SDS011;18062;48.872;9.220;2023-07-31T04:01:02;2.87;;;1.43;;
31438;SDS011;18062;48.872;9.220;2023-07-31T04:03:28;3.50;;;1.67;;
31438;SDS011;18062;48.872;9.220;2023-07-31T04:05:54;3.07;;;1.40;;
31438;SDS011;18062;48.872;9.220;2023-07-31T04:08:23;1.87;;;1.20;;
31438;SDS011;18062;48.872;9.220;2023-07-31T04:10:49;3.17;;;1.43;;
31438;SDS011;18062;48.872;9.220;2023-07-31T04:13:15;1.63;;;1.30;;
31438;SDS011;18062;48.872;9.220;2023-07-31T04:15:41;4.03;;;1.60;;
31438;SDS011;18062;48.872;9.220;2023-07-31T04:18:07;3.03;;;1.27;;
31438;SDS011;18062;48.872;9.220;2023-07-31T04:20:33;1.30;;;1.20;;
31438;SDS011;18062;48.872;9.220;2023-07-31T04:22:59;1.70;;;1.60;;
31438;SDS011;18062;48.872;9.220;2023-07-31T04:25:25;2.37;;;1.30;;
31438;SDS011;18062;48.872;9.220;2023-07-31T04:27:51;3.20;;;1.50;;
31438;SDS011;18062;48.872;9.220;2023-07-31T04:30:17;3.47;;;1.70;;
31438;SDS011;18062;48.872;9.220;2023-07-31T04:32:43;1.93;;;1.47;;
31438;SDS011;18062;48.872;9.220;2023-07-31T04:35:10;1.73;;;1.27;;
31438;SDS011;18062;48.872;9.220;2023-07-31T04:37:36;2.57;;;1.30;;
31438;SDS011;18062;48.872;9.220;2023-07-31T04:40:03;1.47;;;1.37;;
31438;SDS011;18062;48.872;9.220;2023-07-31T04:42:29;1.47;;;1.20;;
31438;SDS011;18062;48.872;9.220;2023-07-31T04:44:55;1.50;;;1.23;;
31438;SDS011;18062;48.872;9.220;2023-07-31T04:47:21;2.03;;;1.30;;
31438;SDS011;18062;48.872;9.220;2023-07-31T04:49:47;1.67;;;1.33;;
31438;SDS011;18062;48.872;9.220;2023-07-31T04:52:13;3.87;;;1.53;;
31438;SDS011;18062;48.872;9.220;2023-07-31T04:54:39;1.90;;;1.30;;
31438;SDS011;18062;48.872;9.220;2023-07-31T04:57:05;1.53;;;1.20;;
31438;SDS011;18062;48.872;9.220;2023-07-31T04:59:31;1.90;;;1.23;;
31438;SDS011;18062;48.872;9.220;2023-07-31T05:01:57;3.00;;;1.27;;
31438;SDS011;18062;48.872;9.220;2023-07-31T05:04:23;1.40;;;1.30;;
31438;SDS011;18062;48.872;9.220;2023-07-31T05:06:49;3.27;;;1.70;;
31438;SDS011;18062;48.872;9.220;2023-07-31T05:09:15;1.63;;;1.27;;
31438;SDS011;18062;48.872;9.220;2023-07-31T05:11:41;1.33;;;1.23;;
31438;SDS011;18062;48.872;9.220;2023-07-31T05:14:07;2.00;;;1.20;;
31438;SDS011;18062;48.872;9.220;2023-07-31T05:16:33;1.93;;;1.40;;
31438;SDS011;18062;48.872;9.220;2023-07-31T05:18:59;3.97;;;1.60;;
31438;SDS011;18062;48.872;9.220;2023-07-31T05:21:25;4.83;;;1.37;;
31438;SDS011;18062;48.872;9.220;2023-07-31T05:23:52;3.63;;;1.30;;
31438;SDS011;18062;48.872;9.220;2023-07-31T05:26:18;1.60;;;1.27;;
31438;SDS011;18062;48.872;9.220;2023-07-31T05:28:45;2.97;;;1.33;;
31438;SDS011;18062;48.872;9.220;2023-07-31T05:31:11;1.47;;;0.93;;
31438;SDS011;18062;48.872;9.220;2023-07-31T05:33:37;2.80;;;1.50;;
31438;SDS011;18062;48.872;9.220;2023-07-31T05:36:03;3.27;;;1.30;;
31438;SDS011;18062;48.872;9.220;2023-07-31T05:38:29;1.40;;;1.30;;
31438;SDS011;18062;48.872;9.220;2023-07-31T05:40:55;2.00;;;1.30;;
31438;SDS011;18062;48.872;9.220;2023-07-31T05:43:21;1.87;;;1.17;;
31438;SDS011;18062;48.872;9.220;2023-07-31T05:45:47;2.13;;;1.37;;
31438;SDS011;18062;48.872;9.220;2023-07-31T05:48:13;1.47;;;1.30;;
31438;SDS011;18062;48.872;9.220;2023-07-31T05:50:39;1.43;;;1.20;;
31438;SDS011;18062;48.872;9.220;2023-07-31T05:53:05;1.27;;;1.13;;
31438;SDS011;18062;48.872;9.220;2023-07-31T05:55:32;1.77;;;1.07;;
31438;SDS011;18062;48.872;9.220;2023-07-31T05:57:59;1.67;;;1.37;;
31438;SDS011;18062;48.872;9.220;2023-07-31T06:00:25;3.53;;;1.33;;
31438;SDS011;18062;48.872;9.220;2023-07-31T06:02:51;1.97;;;1.30;;
31438;SDS011;18062;48.872;9.220;2023-07-31T06:05:17;2.17;;;1.30;;
31438;SDS011;18062;48.872;9.220;2023-07-31T06:07:43;2.10;;;1.20;;
31438;SDS011;18062;48.872;9.220;2023-07-31T06:10:09;1.97;;;1.10;;
31438;SDS011;18062;48.872;9.220;2023-07-31T06:12:35;3.10;;;1.30;;
31438;SDS011;18062;48.872;9.220;2023-07-31T06:15:02;2.93;;;1.70;;
31438;SDS011;18062;48.872;9.220;2023-07-31T06:17:28;2.00;;;1.50;;
31438;SDS011;18062;48.872;9.220;2023-07-31T06:19:55;2.27;;;1.30;;
31438;SDS011;18062;48.872;9.220;2023-07-31T06:22:21;3.40;;;1.43;;
31438;SDS011;18062;48.872;9.220;2023-07-31T06:24:47;2.50;;;1.23;;
31438;SDS011;18062;48.872;9.220;2023-07-31T06:27:13;3.90;;;1.50;;
31438;SDS011;18062;48.872;9.220;2023-07-31T06:29:39;2.00;;;1.33;;
31438;SDS011;18062;48.872;9.220;2023-07-31T06:32:06;2.67;;;1.57;;
31438;SDS011;18062;48.872;9.220;2023-07-31T06:34:32;1.97;;;1.30;;
31438;SDS011;18062;48.872;9.220;2023-07-31T06:36:58;2.03;;;1.20;;
31438;SDS011;18062;48.872;9.220;2023-07-31T06:39:24;2.53;;;1.27;;
31438;SDS011;18062;48.872;9.220;2023-07-31T06:41:50;2.70;;;1.27;;
31438;SDS011;18062;48.872;9.220;2023-07-31T06:44:16;2.20;;;1.40;;
31438;SDS011;18062;48.872;9.220;2023-07-31T06:46:42;2.30;;;1.60;;
31438;SDS011;18062;48.872;9.220;2023-07-31T06:49:08;2.10;;;1.33;;
31438;SDS011;18062;48.872;9.220;2023-07-31T06:51:34;1.80;;;1.30;;
31438;SDS011;18062;48.872;9.220;2023-07-31T06:54:01;3.60;;;1.23;;
31438;SDS011;18062;48.872;9.220;2023-07-31T06:56:27;2.90;;;1.50;;
31438;SDS011;18062;48.872;9.220;2023-07-31T06:58:53;1.90;;;1.30;;
31438;SDS011;18062;48.872;9.220;2023-07-31T07:01:19;1.27;;;1.17;;
31438;SDS011;18062;48.872;9.220;2023-07-31T07:03:45;3.07;;;1.60;;
31438;SDS011;18062;48.872;9.220;2023-07-31T07:06:11;3.83;;;1.20;;
31438;SDS011;18062;48.872;9.220;2023-07-31T07:08:37;2.63;;;1.37;;
31438;SDS011;18062;48.872;9.220;2023-07-31T07:11:03;2.80;;;1.40;;
31438;SDS011;18062;48.872;9.220;2023-07-31T07:13:29;2.77;;;1.60;;
31438;SDS011;18062;48.872;9.220;2023-07-31T07:15:55;2.50;;;1.63;;
31438;SDS011;18062;48.872;9.220;2023-07-31T07:18:21;3.03;;;1.27;;
31438;SDS011;18062;48.872;9.220;2023-07-31T07:20:51;4.27;;;1.70;;
31438;SDS011;18062;48.872;9.220;2023-07-31T07:23:18;2.22;;;1.30;;
31438;SDS011;18062;48.872;9.220;2023-07-31T07:25:44;3.30;;;1.60;;
31438;SDS011;18062;48.872;9.220;2023-07-31T07:28:11;4.15;;;1.67;;
31438;SDS011;18062;48.872;9.220;2023-07-31T07:30:37;4.88;;;1.65;;
31438;SDS011;18062;48.872;9.220;2023-07-31T07:33:03;2.33;;;1.30;;
31438;SDS011;18062;48.872;9.220;2023-07-31T07:35:29;2.38;;;1.30;;
31438;SDS011;18062;48.872;9.220;2023-07-31T07:37:55;2.20;;;1.30;;
31438;SDS011;18062;48.872;9.220;2023-07-31T07:40:21;2.20;;;1.48;;
31438;SDS011;18062;48.872;9.220;2023-07-31T07:42:48;2.58;;;1.30;;
31438;SDS011;18062;48.872;9.220;2023-07-31T07:45:14;2.28;;;1.52;;
31438;SDS011;18062;48.872;9.220;2023-07-31T07:47:40;3.50;;;1.38;;
31438;SDS011;18062;48.872;9.220;2023-07-31T07:50:07;2.92;;;1.30;;
31438;SDS011;18062;48.872;9.220;2023-07-31T07:52:33;3.55;;;1.20;;
31438;SDS011;18062;48.872;9.220;2023-07-31T07:54:59;2.37;;;1.30;;
31438;SDS011;18062;48.872;9.220;2023-07-31T07:57:26;3.38;;;1.33;;
31438;SDS011;18062;48.872;9.220;2023-07-31T07:59:52;2.23;;;1.40;;
31438;SDS011;18062;48.872;9.220;2023-07-31T08:02:18;1.87;;;1.40;;
31438;SDS011;18062;48.872;9.220;2023-07-31T08:04:44;3.17;;;1.50;;
31438;SDS011;18062;48.872;9.220;2023-07-31T08:07:10;3.60;;;1.50;;
31438;SDS011;18062;48.872;9.220;2023-07-31T08:09:37;3.10;;;1.67;;
31438;SDS011;18062;48.872;9.220;2023-07-31T08:12:03;3.73;;;1.40;;
31438;SDS011;18062;48.872;9.220;2023-07-31T08:14:29;3.30;;;1.60;;
31438;SDS011;18062;48.872;9.220;2023-07-31T08:16:55;3.33;;;1.43;;
31438;SDS011;18062;48.872;9.220;2023-07-31T08:19:22;4.17;;;1.50;;
31438;SDS011;18062;48.872;9.220;2023-07-31T08:21:48;1.48;;;1.30;;
31438;SDS011;18062;48.872;9.220;2023-07-31T08:24:14;1.90;;;1.42;;
31438;SDS011;18062;48.872;9.220;2023-07-31T08:26:40;2.13;;;1.48;;
31438;SDS011;18062;48.872;9.220;2023-07-31T08:29:06;1.73;;;1.23;;
31438;SDS011;18062;48.872;9.220;2023-07-31T08:31:32;2.25;;;1.45;;
31438;SDS011;18062;48.872;9.220;2023-07-31T08:33:58;3.20;;;1.70;;
31438;SDS011;18062;48.872;9.220;2023-07-31T08:36:24;3.45;;;1.92;;
31438;SDS011;18062;48.872;9.220;2023-07-31T08:38:50;4.03;;;1.40;;
31438;SDS011;18062;48.872;9.220;2023-07-31T08:41:16;3.00;;;1.27;;
31438;SDS011;18062;48.872;9.220;2023-07-31T08:43:42;2.65;;;1.52;;
31438;SDS011;18062;48.872;9.220;2023-07-31T08:46:10;3.38;;;1.48;;
31438;SDS011;18062;48.872;9.220;2023-07-31T08:48:36;1.85;;;1.27;;
31438;SDS011;18062;48.872;9.220;2023-07-31T08:51:06;3.30;;;1.42;;
31438;SDS011;18062;48.872;9.220;2023-07-31T08:53:32;3.28;;;1.50;;
31438;SDS011;18062;48.872;9.220;2023-07-31T08:55:58;3.50;;;1.58;;
31438;SDS011;18062;48.872;9.220;2023-07-31T08:58:24;2.45;;;1.83;;
31438;SDS011;18062;48.872;9.220;2023-07-31T09:00:51;3.20;;;1.50;;
31438;SDS011;18062;48.872;9.220;2023-07-31T09:03:18;2.63;;;1.40;;
31438;SDS011;18062;48.872;9.220;2023-07-31T09:05:45;1.95;;;1.55;;
31438;SDS011;18062;48.872;9.220;2023-07-31T09:08:12;2.28;;;1.50;;
31438;SDS011;18062;48.872;9.220;2023-07-31T09:10:45;2.40;;;1.60;;
31438;SDS011;18062;48.872;9.220;2023-07-31T09:13:11;1.40;;;1.30;;
31438;SDS011;18062;48.872;9.220;2023-07-31T09:15:37;3.17;;;1.58;;
31438;SDS011;18062;48.872;9.220;2023-07-31T09:18:05;2.70;;;1.63;;
31438;SDS011;18062;48.872;9.220;2023-07-31T09:20:31;2.15;;;1.70;;
31438;SDS011;18062;48.872;9.220;2023-07-31T09:23:04;4.15;;;1.60;;
31438;SDS011;18062;48.872;9.220;2023-07-31T09:25:31;1.75;;;1.38;;
31438;SDS011;18062;48.872;9.220;2023-07-31T09:27:58;3.42;;;1.42;;
31438;SDS011;18062;48.872;9.220;2023-07-31T09:30:24;2.75;;;1.55;;
31438;SDS011;18062;48.872;9.220;2023-07-31T09:32:51;2.88;;;1.55;;
31438;SDS011;18062;48.872;9.220;2023-07-31T09:37:53;3.38;;;1.95;;
31438;SDS011;18062;48.872;9.220;2023-07-31T09:42:58;2.28;;;1.42;;
31438;SDS011;18062;48.872;9.220;2023-07-31T09:45:25;2.15;;;1.63;;
31438;SDS011;18062;48.872;9.220;2023-07-31T09:47:51;1.85;;;1.40;;
31438;SDS011;18062;48.872;9.220;2023-07-31T09:50:17;2.33;;;1.60;;
31438;SDS011;18062;48.872;9.220;2023-07-31T09:52:43;3.33;;;1.38;;
31438;SDS011;18062;48.872;9.220;2023-07-31T09:55:09;4.05;;;1.30;;
31438;SDS011;18062;48.872;9.220;2023-07-31T09:57:39;2.55;;;1.45;;
31438;SDS011;18062;48.872;9.220;2023-07-31T10:00:06;2.40;;;1.50;;
31438;SDS011;18062;48.872;9.220;2023-07-31T10:02:34;2.65;;;1.50;;
31438;SDS011;18062;48.872;9.220;2023-07-31T10:05:02;1.50;;;1.40;;
31438;SDS011;18062;48.872;9.220;2023-07-31T10:07:28;3.35;;;1.65;;
31438;SDS011;18062;48.872;9.220;2023-07-31T10:09:56;3.65;;;1.50;;
31438;SDS011;18062;48.872;9.220;2023-07-31T10:12:23;1.58;;;1.20;;
31438;SDS011;18062;48.872;9.220;2023-07-31T10:14:53;2.05;;;1.75;;
31438;SDS011;18062;48.872;9.220;2023-07-31T10:17:20;1.70;;;1.58;;
31438;SDS011;18062;48.872;9.220;2023-07-31T10:19:47;2.40;;;1.63;;
31438;SDS011;18062;48.872;9.220;2023-07-31T10:22:13;2.85;;;1.67;;
31438;SDS011;18062;48.872;9.220;2023-07-31T10:24:40;2.72;;;1.67;;
31438;SDS011;18062;48.872;9.220;2023-07-31T10:27:08;2.00;;;1.50;;
31438;SDS011;18062;48.872;9.220;2023-07-31T10:29:36;2.22;;;1.55;;
31438;SDS011;18062;48.872;9.220;2023-07-31T10:32:02;1.50;;;1.20;;
31438;SDS011;18062;48.872;9.220;2023-07-31T10:34:31;2.90;;;1.77;;
31438;SDS011;18062;48.872;9.220;2023-07-31T10:42:38;3.90;;;1.67;;
31438;SDS011;18062;48.872;9.220;2023-07-31T10:45:10;3.28;;;1.70;;
31438;SDS011;18062;48.872;9.220;2023-07-31T10:50:21;2.47;;;1.55;;
31438;SDS011;18062;48.872;9.220;2023-07-31T10:52:49;3.90;;;1.83;;
31438;SDS011;18062;48.872;9.220;2023-07-31T10:55:16;3.00;;;1.70;;
31438;SDS011;18062;48.872;9.220;2023-07-31T10:57:48;3.45;;;1.73;;
31438;SDS011;18062;48.872;9.220;2023-07-31T11:00:17;2.30;;;1.58;;
31438;SDS011;18062;48.872;9.220;2023-07-31T11:02:55;3.13;;;1.80;;
31438;SDS011;18062;48.872;9.220;2023-07-31T11:05:22;2.40;;;1.80;;
31438;SDS011;18062;48.872;9.220;2023-07-31T11:10:38;2.90;;;1.70;;
31438;SDS011;18062;48.872;9.220;2023-07-31T11:13:04;3.75;;;1.65;;
31438;SDS011;18062;48.872;9.220;2023-07-31T11:15:30;2.55;;;1.80;;
31438;SDS011;18062;48.872;9.220;2023-07-31T11:17:56;3.70;;;1.88;;
31438;SDS011;18062;48.872;9.220;2023-07-31T11:20:25;2.67;;;1.65;;
31438;SDS011;18062;48.872;9.220;2023-07-31T11:22:51;2.38;;;1.65;;
31438;SDS011;18062;48.872;9.220;2023-07-31T11:25:17;2.50;;;1.70;;
31438;SDS011;18062;48.872;9.220;2023-07-31T11:27:44;3.03;;;1.80;;
31438;SDS011;18062;48.872;9.220;2023-07-31T11:30:10;2.60;;;1.63;;
31438;SDS011;18062;48.872;9.220;2023-07-31T11:32:36;4.10;;;1.63;;
31438;SDS011;18062;48.872;9.220;2023-07-31T11:35:02;2.08;;;1.55;;
31438;SDS011;18062;48.872;9.220;2023-07-31T11:37:43;2.45;;;1.75;;
31438;SDS011;18062;48.872;9.220;2023-07-31T11:40:10;1.90;;;1.60;;
31438;SDS011;18062;48.872;9.220;2023-07-31T11:42:37;2.50;;;1.60;;
31438;SDS011;18062;48.872;9.220;2023-07-31T11:45:07;3.13;;;1.92;;
31438;SDS011;18062;48.872;9.220;2023-07-31T11:47:33;2.55;;;1.77;;
31438;SDS011;18062;48.872;9.220;2023-07-31T11:50:00;2.28;;;1.75;;
31438;SDS011;18062;48.872;9.220;2023-07-31T11:52:26;3.65;;;1.85;;
31438;SDS011;18062;48.872;9.220;2023-07-31T11:54:53;3.10;;;1.85;;
31438;SDS011;18062;48.872;9.220;2023-07-31T11:57:19;3.67;;;1.92;;
31438;SDS011;18062;48.872;9.220;2023-07-31T11:59:46;1.60;;;1.48;;
31438;SDS011;18062;48.872;9.220;2023-07-31T12:02:12;3.22;;;1.73;;
31438;SDS011;18062;48.872;9.220;2023-07-31T12:04:38;2.08;;;1.85;;
31438;SDS011;18062;48.872;9.220;2023-07-31T12:07:04;2.78;;;1.70;;
31438;SDS011;18062;48.872;9.220;2023-07-31T12:09:30;2.47;;;1.85;;
31438;SDS011;18062;48.872;9.220;2023-07-31T12:11:56;3.00;;;1.98;;
31438;SDS011;18062;48.872;9.220;2023-07-31T12:14:26;3.42;;;2.25;;
31438;SDS011;18062;48.872;9.220;2023-07-31T12:16:54;1.95;;;1.70;;
31438;SDS011;18062;48.872;9.220;2023-07-31T12:19:20;2.80;;;1.67;;
31438;SDS011;18062;48.872;9.220;2023-07-31T12:21:46;2.95;;;1.77;;
31438;SDS011;18062;48.872;9.220;2023-07-31T12:24:12;3.65;;;1.95;;
31438;SDS011;18062;48.872;9.220;2023-07-31T12:26:38;2.83;;;1.95;;
31438;SDS011;18062;48.872;9.220;2023-07-31T12:29:06;4.22;;;2.03;;
31438;SDS011;18062;48.872;9.220;2023-07-31T12:31:33;2.50;;;1.88;;
31438;SDS011;18062;48.872;9.220;2023-07-31T12:33:59;2.50;;;1.98;;
31438;SDS011;18062;48.872;9.220;2023-07-31T12:36:27;3.53;;;1.83;;
31438;SDS011;18062;48.872;9.220;2023-07-31T12:38:55;3.90;;;2.05;;
31438;SDS011;18062;48.872;9.220;2023-07-31T12:41:23;2.50;;;1.85;;
31438;SDS011;18062;48.872;9.220;2023-07-31T12:43:49;2.60;;;1.60;;
31438;SDS011;18062;48.872;9.220;2023-07-31T12:46:15;3.97;;;1.77;;
31438;SDS011;18062;48.872;9.220;2023-07-31T12:48:42;3.95;;;1.55;;
31438;SDS011;18062;48.872;9.220;2023-07-31T12:51:08;2.05;;;1.83;;
31438;SDS011;18062;48.872;9.220;2023-07-31T12:53:34;2.88;;;2.00;;
31438;SDS011;18062;48.872;9.220;2023-07-31T12:56:00;3.50;;;1.73;;
31438;SDS011;18062;48.872;9.220;2023-07-31T12:58:26;3.78;;;2.00;;
31438;SDS011;18062;48.872;9.220;2023-07-31T13:00:52;2.78;;;1.83;;
31438;SDS011;18062;48.872;9.220;2023-07-31T13:03:18;2.40;;;1.67;;
31438;SDS011;18062;48.872;9.220;2023-07-31T13:05:44;2.78;;;1.65;;
31438;SDS011;18062;48.872;9.220;2023-07-31T13:08:10;2.35;;;1.60;;
31438;SDS011;18062;48.872;9.220;2023-07-31T13:10:37;2.30;;;1.70;;
31438;SDS011;18062;48.872;9.220;2023-07-31T13:13:03;2.60;;;1.55;;
31438;SDS011;18062;48.872;9.220;2023-07-31T13:15:29;1.73;;;1.40;;
31438;SDS011;18062;48.872;9.220;2023-07-31T13:17:55;3.90;;;2.10;;
31438;SDS011;18062;48.872;9.220;2023-07-31T13:20:21;3.22;;;1.70;;
31438;SDS011;18062;48.872;9.220;2023-07-31T13:22:47;2.55;;;1.70;;
31438;SDS011;18062;48.872;9.220;2023-07-31T13:25:13;2.75;;;1.58;;
31438;SDS011;18062;48.872;9.220;2023-07-31T13:27:39;2.40;;;1.80;;
31438;SDS011;18062;48.872;9.220;2023-07-31T13:30:06;1.50;;;1.40;;
31438;SDS011;18062;48.872;9.220;2023-07-31T13:32:32;2.05;;;1.75;;
31438;SDS011;18062;48.872;9.220;2023-07-31T13:34:58;3.53;;;2.00;;
31438;SDS011;18062;48.872;9.220;2023-07-31T13:37:24;1.70;;;1.60;;
31438;SDS011;18062;48.872;9.220;2023-07-31T13:39:50;2.25;;;1.75;;
31438;SDS011;18062;48.872;9.220;2023-07-31T13:42:16;3.85;;;2.20;;
31438;SDS011;18062;48.872;9.220;2023-07-31T13:44:42;4.00;;;1.98;;
31438;SDS011;18062;48.872;9.220;2023-07-31T13:47:08;2.95;;;1.58;;
31438;SDS011;18062;48.872;9.220;2023-07-31T13:49:34;3.97;;;1.83;;
31438;SDS011;18062;48.872;9.220;2023-07-31T13:52:01;2.58;;;1.67;;
31438;SDS011;18062;48.872;9.220;2023-07-31T13:54:27;1.45;;;1.33;;
31438;SDS011;18062;48.872;9.220;2023-07-31T13:56:53;3.50;;;1.67;;
31438;SDS011;18062;48.872;9.220;2023-07-31T13:59:20;2.22;;;1.65;;
31438;SDS011;18062;48.872;9.220;2023-07-31T14:01:46;2.85;;;1.40;;
31438;SDS011;18062;48.872;9.220;2023-07-31T14:04:12;2.80;;;1.77;;
31438;SDS011;18062;48.872;9.220;2023-07-31T14:06:38;2.33;;;1.77;;
31438;SDS011;18062;48.872;9.220;2023-07-31T14:09:05;2.13;;;1.77;;
31438;SDS011;18062;48.872;9.220;2023-07-31T14:11:31;2.58;;;1.60;;
31438;SDS011;18062;48.872;9.220;2023-07-31T14:13:57;2.42;;;1.65;;
31438;SDS011;18062;48.872;9.220;2023-07-31T14:16:23;1.70;;;1.60;;
31438;SDS011;18062;48.872;9.220;2023-07-31T14:18:50;2.47;;;1.60;;
31438;SDS011;18062;48.872;9.220;2023-07-31T14:21:16;3.30;;;1.77;;
31438;SDS011;18062;48.872;9.220;2023-07-31T14:23:44;3.58;;;1.85;;
31438;SDS011;18062;48.872;9.220;2023-07-31T14:26:10;2.50;;;1.73;;
31438;SDS011;18062;48.872;9.220;2023-07-31T14:28:36;3.45;;;1.80;;
31438;SDS011;18062;48.872;9.220;2023-07-31T14:31:02;3.78;;;1.90;;
31438;SDS011;18062;48.872;9.220;2023-07-31T14:33:28;1.85;;;1.60;;
31438;SDS011;18062;48.872;9.220;2023-07-31T14:35:54;2.33;;;1.58;;
31438;SDS011;18062;48.872;9.220;2023-07-31T14:38:20;2.58;;;1.63;;
31438;SDS011;18062;48.872;9.220;2023-07-31T14:40:46;2.75;;;1.90;;
31438;SDS011;18062;48.872;9.220;2023-07-31T14:43:12;1.98;;;1.77;;
31438;SDS011;18062;48.872;9.220;2023-07-31T14:45:38;2.22;;;1.98;;
31438;SDS011;18062;48.872;9.220;2023-07-31T14:48:04;3.30;;;2.00;;
31438;SDS011;18062;48.872;9.220;2023-07-31T14:50:30;2.92;;;1.90;;
31438;SDS011;18062;48.872;9.220;2023-07-31T14:52:56;1.92;;;1.63;;
31438;SDS011;18062;48.872;9.220;2023-07-31T14:55:22;2.38;;;1.70;;
31438;SDS011;18062;48.872;9.220;2023-07-31T14:57:48;2.80;;;1.80;;
31438;SDS011;18062;48.872;9.220;2023-07-31T15:00:14;4.03;;;2.00;;
31438;SDS011;18062;48.872;9.220;2023-07-31T15:02:41;2.30;;;1.58;;